createdAt,value
2019-05-01T00:01:00.913Z,17.63
2019-05-01T00:03:47.451Z,19.60
2019-05-01T00:06:18.151Z,19.60
2019-05-01T00:08:46.587Z,18.60
2019-05-01T00:11:15.100Z,19.67
2019-05-01T00:13:44.054Z,19.70
2019-05-01T00:16:12.668Z,19.37
2019-05-01T00:18:41.187Z,19.40
2019-05-01T00:21:09.700Z,18.43
2019-05-01T00:23:38.156Z,18.87
2019-05-01T00:26:06.786Z,16.80
2019-05-01T00:28:35.248Z,19.03
2019-05-01T00:31:03.923Z,20.27
2019-05-01T00:33:32.390Z,19.50
2019-05-01T00:36:00.838Z,19.53
2019-05-01T00:38:29.303Z,19.10
2019-05-01T00:40:57.759Z,19.03
2019-05-01T00:43:26.306Z,18.20
2019-05-01T00:45:54.748Z,20.07
2019-05-01T00:48:23.292Z,19.23
2019-05-01T00:50:52.668Z,19.37
2019-05-01T00:53:21.264Z,19.23
2019-05-01T00:55:51.440Z,20.07
2019-05-01T00:58:33.957Z,19.50
2019-05-01T01:01:06.755Z,20.13
2019-05-01T01:03:35.502Z,19.37
2019-05-01T01:06:04.764Z,19.73
2019-05-01T01:08:33.504Z,20.50
2019-05-01T01:11:01.938Z,19.93
2019-05-01T01:13:30.692Z,20.83
2019-05-01T01:15:59.142Z,19.90
2019-05-01T01:18:27.628Z,17.10
2019-05-01T01:20:56.135Z,18.97
2019-05-01T01:23:25.552Z,19.37
2019-05-01T01:25:54.748Z,20.70
2019-05-01T01:28:23.579Z,20.53
2019-05-01T01:30:56.399Z,20.00
2019-05-01T01:33:22.497Z,18.60
2019-05-01T01:35:51.008Z,20.20
2019-05-01T01:38:19.481Z,20.67
2019-05-01T01:40:48.270Z,20.47
2019-05-01T01:43:24.771Z,21.30
2019-05-01T01:45:57.863Z,22.00
2019-05-01T01:48:26.535Z,21.73
2019-05-01T01:50:55.306Z,21.80
2019-05-01T01:53:24.686Z,21.13
2019-05-01T01:55:54.464Z,21.50
2019-05-01T01:58:23.890Z,21.67
2019-05-01T02:01:09.643Z,21.50
2019-05-01T02:03:41.741Z,21.77
2019-05-01T02:06:10.794Z,22.50
2019-05-01T02:08:39.467Z,21.23
2019-05-01T02:11:08.368Z,20.57
2019-05-01T02:13:37.250Z,20.03
2019-05-01T02:16:05.711Z,20.77
2019-05-01T02:18:34.161Z,21.40
2019-05-01T02:21:02.886Z,21.63
2019-05-01T02:23:31.358Z,21.17
2019-05-01T02:26:00.198Z,20.97
2019-05-01T02:28:38.832Z,20.00
2019-05-01T02:31:27.449Z,21.17
2019-05-01T02:33:49.000Z,21.43
2019-05-01T02:36:21.398Z,20.67
2019-05-01T02:38:51.580Z,22.20
2019-05-01T02:41:20.539Z,21.67
2019-05-01T02:43:51.694Z,22.40
2019-05-01T02:46:22.707Z,21.93
2019-05-01T02:49:12.627Z,21.47
2019-05-01T02:51:42.983Z,22.77
2019-05-01T02:54:13.769Z,22.20
2019-05-01T02:56:48.029Z,21.63
2019-05-01T02:59:17.029Z,22.17
2019-05-01T03:01:47.855Z,20.30
2019-05-01T03:04:16.311Z,20.03
2019-05-01T03:06:45.911Z,22.50
2019-05-01T03:09:14.788Z,22.83
2019-05-01T03:11:45.041Z,22.00
2019-05-01T03:14:19.589Z,22.20
2019-05-01T03:16:50.841Z,23.07
2019-05-01T03:19:31.300Z,22.17
2019-05-01T03:22:05.095Z,22.80
2019-05-01T03:24:33.543Z,22.07
2019-05-01T03:27:02.439Z,22.83
2019-05-01T03:29:31.370Z,22.10
2019-05-01T03:32:16.773Z,22.00
2019-05-01T03:34:30.668Z,22.00
2019-05-01T03:36:59.846Z,22.67
2019-05-01T03:39:29.088Z,24.63
2019-05-01T03:41:58.594Z,22.47
2019-05-01T03:44:27.283Z,21.77
2019-05-01T03:46:55.990Z,23.73
2019-05-01T03:49:25.667Z,23.57
2019-05-01T03:51:54.310Z,22.30
2019-05-01T03:54:22.811Z,22.43
2019-05-01T03:56:51.540Z,22.53
2019-05-01T03:59:20.599Z,23.33
2019-05-01T04:01:59.883Z,21.53
2019-05-01T04:04:30.639Z,22.93
2019-05-01T04:06:59.271Z,23.07
2019-05-01T04:09:27.710Z,22.37
2019-05-01T04:11:56.240Z,23.47
2019-05-01T04:14:24.762Z,22.60
2019-05-01T04:16:55.815Z,23.90
2019-05-01T04:19:24.708Z,22.87
2019-05-01T04:21:55.660Z,24.13
2019-05-01T04:24:24.240Z,24.97
2019-05-01T04:26:53.628Z,23.73
2019-05-01T04:29:26.465Z,21.70
2019-05-01T04:31:56.563Z,22.60
2019-05-01T04:34:41.935Z,22.43
2019-05-01T04:37:13.172Z,23.63
2019-05-01T04:39:41.969Z,23.27
2019-05-01T04:42:10.805Z,25.60
2019-05-01T04:44:39.454Z,25.47
2019-05-01T04:47:08.460Z,24.30
2019-05-01T04:49:36.991Z,24.03
2019-05-01T04:52:05.608Z,24.93
2019-05-01T04:54:34.111Z,23.37
2019-05-01T04:57:02.838Z,24.53
2019-05-01T04:59:31.352Z,24.80
2019-05-01T05:02:05.187Z,24.73
2019-05-01T05:04:34.317Z,24.47
2019-05-01T05:07:03.455Z,23.37
2019-05-01T05:09:40.216Z,23.20
2019-05-01T05:12:12.160Z,22.50
2019-05-01T05:14:51.089Z,23.10
2019-05-01T05:17:23.827Z,23.47
2019-05-01T05:19:52.722Z,24.07
2019-05-01T05:22:21.301Z,23.17
2019-05-01T05:24:50.198Z,24.40
2019-05-01T05:27:19.563Z,25.30
2019-05-01T05:29:49.265Z,23.17
2019-05-01T05:32:20.253Z,23.87
2019-05-01T05:34:50.700Z,25.20
2019-05-01T05:37:38.035Z,25.57
2019-05-01T05:40:06.915Z,26.43
2019-05-01T05:42:35.432Z,26.47
2019-05-01T05:45:07.850Z,26.17
2019-05-01T05:47:36.526Z,25.23
2019-05-01T05:50:07.734Z,23.37
2019-05-01T05:52:39.976Z,26.13
2019-05-01T05:55:10.471Z,26.00
2019-05-01T05:57:57.924Z,27.47
2019-05-01T06:00:45.036Z,25.93
2019-05-01T06:03:35.019Z,27.37
2019-05-01T06:06:19.046Z,27.37
2019-05-01T06:08:50.722Z,26.47
2019-05-01T06:11:37.895Z,27.83
2019-05-01T06:14:19.412Z,26.37
2019-05-01T06:17:01.554Z,26.73
2019-05-01T06:19:50.969Z,27.50
2019-05-01T06:22:21.954Z,25.97
2019-05-01T06:25:21.109Z,28.43
2019-05-01T06:27:39.672Z,27.70
2019-05-01T06:30:11.129Z,26.57
2019-05-01T06:32:40.248Z,29.80
2019-05-01T06:35:09.015Z,28.53
2019-05-01T06:38:02.285Z,29.20
2019-05-01T06:40:42.063Z,28.37
2019-05-01T06:43:20.211Z,28.97
2019-05-01T06:45:51.658Z,27.10
2019-05-01T06:48:21.799Z,29.93
2019-05-01T06:50:58.468Z,28.83
2019-05-01T06:53:27.051Z,28.30
2019-05-01T06:55:55.737Z,29.03
2019-05-01T06:58:24.372Z,28.20
2019-05-01T07:00:52.966Z,29.27
2019-05-01T07:03:22.255Z,29.00
2019-05-01T07:05:54.251Z,29.10
2019-05-01T07:08:24.767Z,29.00
2019-05-01T07:10:52.642Z,28.67
2019-05-01T07:13:21.148Z,29.73
2019-05-01T07:15:49.880Z,29.40
2019-05-01T07:18:23.264Z,29.30
2019-05-01T07:20:51.519Z,27.13
2019-05-01T07:23:21.133Z,26.43
2019-05-01T07:25:50.415Z,28.60
2019-05-01T07:28:19.048Z,29.13
2019-05-01T07:30:49.849Z,28.23
2019-05-01T07:33:19.738Z,29.43
2019-05-01T07:35:49.007Z,28.13
2019-05-01T07:38:17.523Z,28.03
2019-05-01T07:40:46.223Z,28.37
2019-05-01T07:43:33.111Z,28.33
2019-05-01T07:46:03.303Z,30.13
2019-05-01T07:48:41.434Z,30.03
2019-05-01T07:51:09.871Z,28.73
2019-05-01T07:53:38.803Z,29.87
2019-05-01T07:56:08.881Z,28.10
2019-05-01T07:58:38.679Z,31.00
2019-05-01T08:01:13.153Z,29.83
2019-05-01T08:03:42.671Z,27.90
2019-05-01T08:06:16.337Z,28.50
2019-05-01T08:08:42.377Z,28.80
2019-05-01T08:11:10.905Z,26.43
2019-05-01T08:13:39.653Z,25.30
2019-05-01T08:16:08.807Z,26.37
2019-05-01T08:18:39.097Z,26.10
2019-05-01T08:21:26.019Z,25.77
2019-05-01T08:23:55.911Z,26.30
2019-05-01T08:26:24.387Z,26.30
2019-05-01T08:29:11.064Z,27.53
2019-05-01T08:31:58.735Z,26.07
2019-05-01T08:34:29.791Z,27.10
2019-05-01T08:36:58.362Z,24.73
2019-05-01T08:39:26.803Z,27.53
2019-05-01T08:41:55.371Z,27.77
2019-05-01T08:44:29.681Z,27.33
2019-05-01T08:47:12.554Z,26.60
2019-05-01T08:49:50.682Z,24.27
2019-05-01T08:52:18.338Z,24.10
2019-05-01T08:54:46.786Z,25.03
2019-05-01T08:57:15.234Z,25.40
2019-05-01T08:59:43.679Z,25.20
2019-05-01T09:02:12.207Z,23.43
2019-05-01T09:04:40.645Z,24.47
2019-05-01T09:07:09.123Z,26.70
2019-05-01T09:09:39.657Z,25.80
2019-05-01T09:12:11.892Z,24.43
2019-05-01T09:14:37.930Z,27.30
2019-05-01T09:17:06.390Z,24.73
2019-05-01T09:19:34.823Z,27.33
2019-05-01T09:22:03.350Z,25.77
2019-05-01T09:24:31.787Z,23.80
2019-05-01T09:27:04.936Z,27.43
2019-05-01T09:29:35.018Z,24.87
2019-05-01T09:32:05.028Z,23.97
2019-05-01T09:34:33.981Z,25.67
2019-05-01T09:37:02.441Z,28.60
2019-05-01T09:39:31.723Z,26.63
2019-05-01T09:42:00.227Z,23.10
2019-05-01T09:44:28.647Z,28.03
2019-05-01T09:46:57.195Z,24.93
2019-05-01T09:49:25.917Z,25.60
2019-05-01T09:51:59.146Z,22.20
2019-05-01T09:54:32.118Z,23.40
2019-05-01T09:57:00.592Z,24.80
2019-05-01T09:59:29.358Z,24.27
2019-05-01T10:01:57.797Z,23.97
2019-05-01T10:04:30.192Z,25.80
2019-05-01T10:06:56.558Z,23.83
2019-05-01T10:09:26.815Z,22.23
2019-05-01T10:11:55.243Z,23.63
2019-05-01T10:14:23.713Z,22.90
2019-05-01T10:16:52.210Z,22.67
2019-05-01T10:19:20.670Z,25.03
2019-05-01T10:21:49.102Z,24.27
2019-05-01T10:24:17.577Z,23.10
2019-05-01T10:26:47.670Z,23.13
2019-05-01T10:29:34.045Z,20.80
2019-05-01T10:32:09.843Z,22.70
2019-05-01T10:34:45.896Z,23.40
2019-05-01T10:37:14.334Z,21.03
2019-05-01T10:39:42.868Z,23.40
2019-05-01T10:42:11.302Z,20.83
2019-05-01T10:44:39.811Z,21.40
2019-05-01T10:47:08.244Z,21.80
2019-05-01T10:49:36.713Z,25.33
2019-05-01T10:52:13.846Z,22.20
2019-05-01T10:54:35.415Z,23.47
2019-05-01T10:57:04.652Z,21.00
2019-05-01T10:59:33.255Z,21.20
2019-05-01T11:02:03.347Z,20.40
2019-05-01T11:04:31.839Z,21.77
2019-05-01T11:07:00.286Z,19.00
2019-05-01T11:09:28.747Z,19.67
2019-05-01T11:11:57.184Z,18.70
2019-05-01T11:14:25.655Z,17.97
2019-05-01T11:16:54.121Z,19.23
2019-05-01T11:19:22.631Z,20.27
2019-05-01T11:21:51.186Z,20.13
2019-05-01T11:24:20.047Z,19.27
2019-05-01T11:26:48.501Z,18.87
2019-05-01T11:29:17.030Z,19.43
2019-05-01T11:31:56.009Z,19.30
2019-05-01T11:34:42.642Z,18.50
2019-05-01T11:37:12.847Z,20.03
2019-05-01T11:39:45.843Z,18.80
2019-05-01T11:42:15.664Z,18.27
2019-05-01T11:44:44.296Z,18.27
2019-05-01T11:47:12.826Z,20.43
2019-05-01T11:49:41.480Z,18.97
2019-05-01T11:52:09.932Z,19.97
2019-05-01T11:54:38.700Z,17.67
2019-05-01T11:57:07.127Z,16.13
2019-05-01T11:59:35.604Z,16.33
2019-05-01T12:02:04.249Z,17.23
2019-05-01T12:04:32.747Z,16.87
2019-05-01T12:07:01.198Z,17.90
2019-05-01T12:09:29.664Z,18.43
2019-05-01T12:12:05.684Z,18.00
2019-05-01T12:14:34.172Z,17.20
2019-05-01T12:17:13.241Z,17.03
2019-05-01T12:19:41.775Z,18.23
2019-05-01T12:22:10.631Z,19.53
2019-05-01T12:24:39.448Z,18.70
2019-05-01T12:27:07.939Z,19.37
2019-05-01T12:29:36.475Z,19.83
2019-05-01T12:32:04.983Z,20.10
2019-05-01T12:34:33.510Z,19.43
2019-05-01T12:37:19.809Z,19.87
2019-05-01T12:39:48.355Z,21.27
2019-05-01T12:42:21.283Z,19.77
2019-05-01T12:44:49.746Z,19.67
2019-05-01T12:47:22.791Z,20.47
2019-05-01T12:49:53.131Z,19.93
2019-05-01T12:52:23.227Z,17.43
2019-05-01T12:54:56.316Z,20.67
2019-05-01T12:57:24.746Z,18.60
2019-05-01T12:59:53.291Z,19.07
2019-05-01T13:02:22.087Z,20.80
2019-05-01T13:04:50.675Z,19.47
2019-05-01T13:07:19.491Z,20.00
2019-05-01T13:09:47.960Z,18.13
2019-05-01T13:12:16.728Z,20.23
2019-05-01T13:14:45.175Z,18.83
2019-05-01T13:17:13.721Z,20.77
2019-05-01T13:19:42.227Z,17.93
2019-05-01T13:22:10.695Z,18.57
2019-05-01T13:24:40.772Z,17.77
2019-05-01T13:27:16.627Z,20.50
2019-05-01T13:29:49.449Z,20.97
2019-05-01T13:32:19.546Z,19.37
2019-05-01T13:34:47.985Z,19.53
2019-05-01T13:37:16.511Z,17.90
2019-05-01T13:39:45.024Z,18.50
2019-05-01T13:42:13.474Z,16.93
2019-05-01T13:44:42.281Z,17.10
2019-05-01T13:47:10.811Z,18.40
2019-05-01T13:49:39.258Z,17.27
2019-05-01T13:52:08.009Z,16.20
2019-05-01T13:54:36.515Z,16.23
2019-05-01T13:57:05.047Z,19.10
2019-05-01T13:59:33.486Z,19.00
2019-05-01T14:02:01.958Z,18.37
2019-05-01T14:04:30.481Z,18.23
2019-05-01T14:06:59.027Z,15.43
2019-05-01T14:09:29.156Z,17.83
2019-05-01T14:11:57.654Z,19.03
2019-05-01T14:14:26.166Z,17.97
2019-05-01T14:16:54.670Z,16.73
2019-05-01T14:19:23.173Z,16.23
2019-05-01T14:21:55.982Z,16.00
2019-05-01T14:24:28.507Z,18.90
2019-05-01T14:26:56.954Z,17.23
2019-05-01T14:29:25.702Z,17.70
2019-05-01T14:31:54.174Z,18.70
2019-05-01T14:34:22.662Z,17.73
2019-05-01T14:36:51.177Z,17.80
2019-05-01T14:39:19.619Z,16.73
2019-05-01T14:41:48.074Z,17.10
2019-05-01T14:44:16.582Z,16.33
2019-05-01T14:46:45.042Z,17.33
2019-05-01T14:49:13.515Z,24.23
2019-05-01T14:51:41.955Z,15.93
2019-05-01T14:54:10.419Z,16.60
2019-05-01T14:56:38.851Z,15.87
2019-05-01T14:59:07.322Z,15.60
2019-05-01T15:01:35.772Z,15.97
2019-05-01T15:04:04.381Z,15.67
2019-05-01T15:06:32.845Z,15.47
2019-05-01T15:09:01.324Z,14.47
2019-05-01T15:11:29.838Z,16.30
2019-05-01T15:13:59.960Z,14.07
2019-05-01T15:16:35.918Z,15.40
2019-05-01T15:19:08.462Z,16.00
2019-05-01T15:21:36.893Z,16.10
2019-05-01T15:24:05.524Z,15.30
2019-05-01T15:26:33.959Z,15.13
2019-05-01T15:29:02.500Z,15.27
2019-05-01T15:31:31.273Z,15.37
2019-05-01T15:34:00.047Z,14.93
2019-05-01T15:36:28.492Z,14.73
2019-05-01T15:38:57.716Z,13.40
2019-05-01T15:41:36.635Z,14.27
2019-05-01T15:44:06.832Z,15.43
2019-05-01T15:46:36.975Z,14.57
2019-05-01T15:49:05.547Z,14.40
2019-05-01T15:51:33.994Z,15.23
2019-05-01T15:54:02.609Z,14.60
2019-05-01T15:56:31.082Z,16.57
2019-05-01T15:58:59.538Z,14.93
2019-05-01T16:01:28.524Z,15.17
2019-05-01T16:03:57.046Z,14.83
2019-05-01T16:06:25.523Z,15.30
2019-05-01T16:08:54.067Z,15.90
2019-05-01T16:11:32.979Z,14.03
2019-05-01T16:14:02.038Z,15.73
2019-05-01T16:16:30.547Z,16.97
2019-05-01T16:18:59.048Z,15.50
2019-05-01T16:21:27.608Z,14.90
2019-05-01T16:23:56.323Z,15.57
2019-05-01T16:26:24.855Z,15.90
2019-05-01T16:28:53.327Z,15.63
2019-05-01T16:31:22.074Z,17.43
2019-05-01T16:33:50.623Z,16.43
2019-05-01T16:36:20.432Z,17.93
2019-05-01T16:38:50.818Z,16.07
2019-05-01T16:41:19.338Z,16.60
2019-05-01T16:43:47.802Z,16.17
2019-05-01T16:46:16.372Z,15.27
2019-05-01T16:48:44.934Z,16.23
2019-05-01T16:51:13.475Z,15.20
2019-05-01T16:53:42.006Z,15.63
2019-05-01T16:56:10.731Z,13.70
2019-05-01T16:58:39.907Z,16.40
2019-05-01T17:01:10.338Z,16.70
2019-05-01T17:03:46.312Z,15.23
2019-05-01T17:06:32.867Z,16.07
2019-05-01T17:09:02.958Z,16.10
2019-05-01T17:11:35.185Z,14.43
2019-05-01T17:14:03.719Z,16.07
2019-05-01T17:16:32.303Z,16.43
2019-05-01T17:19:00.831Z,16.90
2019-05-01T17:21:29.727Z,15.00
2019-05-01T17:23:58.723Z,15.93
2019-05-01T17:26:27.206Z,16.00
2019-05-01T17:28:55.686Z,17.43
2019-05-01T17:31:26.087Z,16.40
2019-05-01T17:33:55.614Z,16.70
2019-05-01T17:36:24.848Z,16.03
2019-05-01T17:38:53.290Z,15.20
2019-05-01T17:41:22.786Z,14.87
2019-05-01T17:43:52.321Z,14.27
2019-05-01T17:46:20.787Z,15.40
2019-05-01T17:48:49.233Z,17.40
2019-05-01T17:51:19.763Z,16.30
2019-05-01T17:53:47.891Z,14.60
2019-05-01T17:56:21.844Z,15.43
2019-05-01T17:58:46.523Z,14.70
2019-05-01T18:01:22.671Z,14.57
2019-05-01T18:04:04.956Z,14.57
2019-05-01T18:06:35.683Z,14.30
2019-05-01T18:09:08.239Z,15.20
2019-05-01T18:11:37.833Z,15.70
2019-05-01T18:14:06.446Z,17.63
2019-05-01T18:16:35.233Z,16.13
2019-05-01T18:19:07.432Z,16.57
2019-05-01T18:21:37.118Z,16.10
2019-05-01T18:24:25.303Z,17.03
2019-05-01T18:26:55.437Z,15.87
2019-05-01T18:29:30.991Z,15.83
2019-05-01T18:32:02.983Z,16.40
2019-05-01T18:34:33.711Z,15.03
2019-05-01T18:37:01.695Z,15.93
2019-05-01T18:39:37.653Z,17.30
2019-05-01T18:42:11.060Z,16.67
2019-05-01T18:44:42.432Z,15.97
2019-05-01T18:47:09.806Z,17.03
2019-05-01T18:49:38.274Z,17.30
2019-05-01T18:52:08.090Z,16.27
2019-05-01T18:54:36.716Z,21.23
2019-05-01T18:57:06.003Z,23.07
2019-05-01T18:59:34.907Z,20.07
2019-05-01T19:02:04.192Z,18.17
2019-05-01T19:04:32.757Z,16.30
2019-05-01T19:07:01.225Z,15.10
2019-05-01T19:09:30.729Z,16.80
2019-05-01T19:12:00.138Z,16.90
2019-05-01T19:14:30.784Z,17.90
2019-05-01T19:16:59.491Z,18.23
2019-05-01T19:19:27.947Z,17.33
2019-05-01T19:21:56.476Z,17.30
2019-05-01T19:24:25.177Z,16.20
2019-05-01T19:26:53.717Z,17.67
2019-05-01T19:29:26.639Z,16.70
2019-05-01T19:31:53.180Z,16.73
2019-05-01T19:34:21.922Z,17.27
2019-05-01T19:36:51.618Z,17.30
2019-05-01T19:39:20.496Z,17.33
2019-05-01T19:41:50.954Z,18.30
2019-05-01T19:44:20.212Z,19.57
2019-05-01T19:46:48.887Z,17.57
2019-05-01T19:49:17.333Z,17.93
2019-05-01T19:51:45.907Z,17.40
2019-05-01T19:54:14.502Z,18.57
2019-05-01T19:56:42.985Z,18.07
2019-05-01T19:59:11.433Z,17.63
2019-05-01T20:01:44.449Z,17.47
2019-05-01T20:04:13.072Z,17.50
2019-05-01T20:06:40.923Z,18.07
2019-05-01T20:09:09.835Z,17.63
2019-05-01T20:11:38.283Z,17.43
2019-05-01T20:14:06.821Z,18.53
2019-05-01T20:16:35.325Z,19.40
2019-05-01T20:19:03.783Z,19.17
2019-05-01T20:21:32.492Z,19.57
2019-05-01T20:24:04.240Z,18.87
2019-05-01T20:26:32.036Z,18.40
2019-05-01T20:29:01.303Z,19.40
2019-05-01T20:31:32.649Z,17.17
2019-05-01T20:34:00.014Z,18.27
2019-05-01T20:36:28.468Z,17.43
2019-05-01T20:38:56.999Z,18.30
2019-05-01T20:41:25.836Z,17.80
2019-05-01T20:43:54.627Z,19.60
2019-05-01T20:46:25.948Z,18.30
2019-05-01T20:48:56.015Z,17.33
2019-05-01T20:51:23.859Z,16.93
2019-05-01T20:53:52.455Z,17.17
2019-05-01T20:56:25.288Z,18.50
2019-05-01T20:58:57.687Z,18.10
2019-05-01T21:01:27.879Z,17.53
2019-05-01T21:04:07.588Z,18.00
2019-05-01T21:06:39.179Z,17.60
2019-05-01T21:09:13.727Z,18.57
2019-05-01T21:12:04.688Z,18.13
2019-05-01T21:14:23.613Z,17.23
2019-05-01T21:16:52.117Z,17.23
2019-05-01T21:19:20.893Z,17.47
2019-05-01T21:21:49.407Z,18.23
2019-05-01T21:24:17.879Z,17.60
2019-05-01T21:26:46.390Z,17.93
2019-05-01T21:29:14.888Z,18.17
2019-05-01T21:31:44.134Z,16.87
2019-05-01T21:34:14.415Z,17.83
2019-05-01T21:36:47.498Z,18.37
2019-05-01T21:39:15.010Z,18.40
2019-05-01T21:41:43.427Z,18.33
2019-05-01T21:44:13.137Z,18.77
2019-05-01T21:46:43.200Z,18.20
2019-05-01T21:49:12.967Z,19.90
2019-05-01T21:51:45.898Z,19.23
2019-05-01T21:54:16.086Z,18.10
2019-05-01T21:56:42.858Z,18.37
2019-05-01T21:59:11.461Z,19.23
2019-05-01T22:01:40.059Z,19.90
2019-05-01T22:04:08.548Z,16.63
2019-05-01T22:06:37.034Z,19.73
2019-05-01T22:09:10.504Z,18.73
2019-05-01T22:11:38.989Z,19.53
2019-05-01T22:14:09.234Z,18.77
2019-05-01T22:16:37.674Z,17.47
2019-05-01T22:19:20.250Z,19.30
2019-05-01T22:21:59.170Z,18.30
2019-05-01T22:24:29.267Z,17.17
2019-05-01T22:26:59.343Z,18.23
2019-05-01T22:29:34.140Z,18.30
2019-05-01T22:32:10.250Z,19.83
2019-05-01T22:34:49.364Z,18.70
2019-05-01T22:37:18.067Z,18.80
2019-05-01T22:39:48.187Z,19.43
2019-05-01T22:42:17.004Z,18.13
2019-05-01T22:44:45.530Z,17.63
2019-05-01T22:47:14.971Z,18.10
2019-05-01T22:49:44.218Z,17.43
2019-05-01T22:52:12.751Z,17.20
2019-05-01T22:54:44.987Z,17.40
2019-05-01T22:57:11.455Z,18.17
2019-05-01T22:59:40.361Z,18.47
2019-05-01T23:02:13.491Z,19.33
2019-05-01T23:04:42.146Z,18.30
2019-05-01T23:07:11.813Z,18.13
2019-05-01T23:09:40.919Z,19.13
2019-05-01T23:12:09.384Z,19.43
2019-05-01T23:14:37.819Z,20.43
2019-05-01T23:17:10.741Z,21.33
2019-05-01T23:19:39.178Z,21.07
2019-05-01T23:22:07.633Z,20.77
2019-05-01T23:24:36.319Z,25.07
2019-05-01T23:27:04.920Z,23.80
2019-05-01T23:29:33.358Z,25.13
2019-05-01T23:32:01.938Z,25.33
2019-05-01T23:34:30.378Z,25.73
2019-05-01T23:36:58.846Z,27.50
2019-05-01T23:39:27.347Z,26.17
2019-05-01T23:41:55.820Z,27.37
2019-05-01T23:44:24.257Z,26.77
2019-05-01T23:46:52.753Z,26.87
2019-05-01T23:49:21.185Z,26.97
2019-05-01T23:51:49.651Z,26.33
2019-05-01T23:54:18.092Z,25.67
2019-05-01T23:56:46.614Z,27.07
2019-05-01T23:59:15.053Z,26.40
